Time;durP1;ratioP1;P1;durP2;ratioP2;P2;SDS_P1;SDS_P2;PMS_P1;PMS_P2;Temp;Humidity;BMP_temperature;BMP_pressure;BME280_temperature;BME280_humidity;BME280_pressure;Samples;Min_cycle;Max_cycle;Signal;HPM_P1;HPM_P2
2021/05/31 00:00:07;;;;;;;10.50;3.00;;;14.00;57.70;;;;;;4996061;28;20414;-86
2021/05/31 00:02:33;;;;;;;7.93;3.30;;;13.90;57.70;;;;;;4996066;28;20202;-87
2021/05/31 00:04:59;;;;;;;3.40;2.93;;;13.90;58.80;;;;;;4995800;28;20171;-86
2021/05/31 00:07:25;;;;;;;2.90;2.73;;;13.90;58.40;;;;;;4996028;28;20422;-87
2021/05/31 00:09:54;;;;;;;6.67;2.60;;;13.90;58.40;;;;;;4995668;28;20409;-87
2021/05/31 00:12:20;;;;;;;12.68;2.72;;;13.80;58.80;;;;;;4995916;28;20469;-86
2021/05/31 00:14:46;;;;;;;5.30;2.80;;;13.80;59.20;;;;;;4995379;28;20181;-87
2021/05/31 00:17:12;;;;;;;4.90;2.80;;;13.70;58.50;;;;;;4995786;28;20960;-87
2021/05/31 00:19:39;;;;;;;6.22;2.90;;;13.60;58.40;;;;;;4995807;28;20675;-87
2021/05/31 00:22:05;;;;;;;5.68;2.38;;;13.60;58.70;;;;;;4995763;28;20191;-87
2021/05/31 00:24:32;;;;;;;3.38;2.40;;;13.60;59.30;;;;;;4995472;28;20178;-86
2021/05/31 00:26:58;;;;;;;7.82;2.70;;;13.50;58.00;;;;;;4995768;28;20626;-86
2021/05/31 00:29:24;;;;;;;4.25;2.13;;;13.40;58.70;;;;;;4995696;28;20175;-86
2021/05/31 00:31:59;;;;;;;4.47;2.55;;;13.30;58.40;;;;;;4995316;28;20213;-86
2021/05/31 00:34:25;;;;;;;3.05;2.35;;;13.30;58.00;;;;;;4995422;28;20234;-87
2021/05/31 00:36:51;;;;;;;5.47;2.83;;;13.30;59.30;;;;;;4995409;28;20171;-86
2021/05/31 00:39:19;;;;;;;7.15;2.85;;;13.30;58.50;;;;;;4995492;28;20409;-87
2021/05/31 00:41:48;;;;;;;5.47;3.08;;;13.30;58.80;;;;;;4995153;28;20612;-86
2021/05/31 00:44:14;;;;;;;19.17;2.70;;;13.30;58.90;;;;;;4995219;28;20209;-86
2021/05/31 00:46:40;;;;;;;7.53;2.00;;;13.30;58.00;;;;;;4995267;28;20178;-86
2021/05/31 00:49:06;;;;;;;5.47;2.50;;;13.30;57.90;;;;;;4995452;28;20222;-86
2021/05/31 00:51:32;;;;;;;3.43;2.63;;;13.30;58.90;;;;;;4995159;28;20483;-86
2021/05/31 00:53:59;;;;;;;5.73;2.93;;;13.30;59.10;;;;;;4995585;28;20421;-85
2021/05/31 00:56:25;;;;;;;4.28;3.10;;;13.30;58.10;;;;;;4995504;28;20813;-86
2021/05/31 00:58:51;;;;;;;3.50;1.90;;;13.20;58.50;;;;;;4995522;28;20170;-85
2021/05/31 01:01:16;;;;;;;5.10;2.53;;;13.10;59.20;;;;;;4995436;28;20206;-86
2021/05/31 01:03:42;;;;;;;3.03;1.93;;;13.00;59.60;;;;;;4995292;28;20944;-86
2021/05/31 01:06:12;;;;;;;11.57;2.47;;;12.90;60.30;;;;;;4995217;28;20474;-85
2021/05/31 01:08:55;;;;;;;2.90;2.40;;;12.90;60.60;;;;;;4995371;28;20637;-86
2021/05/31 01:11:43;;;;;;;4.18;2.20;;;12.90;61.20;;;;;;4994942;28;20209;-85
2021/05/31 01:14:30;;;;;;;5.40;2.63;;;12.90;62.30;;;;;;4994728;28;20170;-86
2021/05/31 01:17:05;;;;;;;2.85;2.20;;;12.90;61.70;;;;;;4995055;28;20163;-85
2021/05/31 01:19:44;;;;;;;3.85;2.00;;;12.80;62.30;;;;;;4995137;28;20206;-85
2021/05/31 01:22:12;;;;;;;4.07;2.53;;;12.80;62.70;;;;;;4995584;28;20225;-86
2021/05/31 01:24:52;;;;;;;3.33;2.35;;;12.70;63.80;;;;;;4995410;28;20203;-85
2021/05/31 01:27:21;;;;;;;8.05;3.08;;;12.70;63.70;;;;;;4995711;28;20216;-85
2021/05/31 01:30:09;;;;;;;5.90;2.22;;;12.60;62.80;;;;;;4995289;28;20174;-85
2021/05/31 01:32:43;;;;;;;5.07;2.20;;;12.60;63.00;;;;;;4994918;28;20209;-85
2021/05/31 01:35:33;;;;;;;7.20;2.92;;;12.60;63.40;;;;;;5012075;28;20148;-85
2021/05/31 01:38:01;;;;;;;3.17;2.25;;;12.60;63.80;;;;;;4995263;28;20171;-85
2021/05/31 01:40:28;;;;;;;3.40;2.00;;;12.50;64.80;;;;;;4994811;28;20257;-86
2021/05/31 01:43:00;;;;;;;3.35;2.60;;;12.50;64.40;;;;;;4994658;28;20656;-86
2021/05/31 01:45:26;;;;;;;6.90;2.45;;;12.40;64.80;;;;;;4994881;28;20258;-85
2021/05/31 01:47:52;;;;;;;4.90;2.15;;;12.40;64.90;;;;;;4994442;28;20186;-85
2021/05/31 01:50:19;;;;;;;7.10;3.00;;;12.30;65.20;;;;;;4994767;28;20171;-85
2021/05/31 01:52:47;;;;;;;6.55;2.88;;;12.30;65.50;;;;;;4994439;28;20206;-85
2021/05/31 01:55:16;;;;;;;4.28;2.97;;;12.20;66.00;;;;;;4995864;28;20538;-85
2021/05/31 01:57:43;;;;;;;5.18;2.60;;;12.10;66.20;;;;;;4997582;28;20642;-85
2021/05/31 02:00:11;;;;;;;13.98;3.20;;;12.00;66.70;;;;;;4997695;28;20166;-85
2021/05/31 02:02:36;;;;;;;5.72;2.95;;;11.90;66.70;;;;;;4997211;28;20190;-85
2021/05/31 02:05:07;;;;;;;5.70;3.03;;;11.90;67.10;;;;;;4997394;28;20650;-85
2021/05/31 02:07:33;;;;;;;8.30;3.20;;;11.80;67.70;;;;;;4997399;28;20801;-85
2021/05/31 02:09:59;;;;;;;4.28;2.67;;;11.80;67.80;;;;;;4997640;28;20266;-85
2021/05/31 02:12:31;;;;;;;15.20;4.37;;;11.70;68.80;;;;;;4997265;28;20297;-85
2021/05/31 02:15:07;;;;;;;4.25;2.42;;;11.70;68.70;;;;;;4997478;28;20417;-85
2021/05/31 02:17:42;;;;;;;4.20;2.30;;;11.60;69.10;;;;;;4997255;28;20162;-85
2021/05/31 02:20:11;;;;;;;5.43;2.83;;;11.50;68.70;;;;;;4997438;28;20171;-85
2021/05/31 02:22:44;;;;;;;3.95;2.50;;;11.50;69.40;;;;;;4997113;28;20202;-85
2021/05/31 02:25:12;;;;;;;4.55;2.72;;;11.50;70.10;;;;;;4997447;28;20590;-85
2021/05/31 02:27:38;;;;;;;6.88;2.40;;;11.40;69.90;;;;;;4997068;28;20179;-85
2021/05/31 02:30:06;;;;;;;4.28;2.80;;;11.40;69.80;;;;;;4997207;28;20178;-85
2021/05/31 02:32:32;;;;;;;3.45;2.50;;;11.40;69.80;;;;;;4997295;28;20248;-85
2021/05/31 02:34:58;;;;;;;3.28;2.25;;;11.40;70.50;;;;;;4997029;28;20171;-85
2021/05/31 02:37:34;;;;;;;5.05;2.78;;;11.30;70.60;;;;;;4997202;28;20504;-85
2021/05/31 02:40:00;;;;;;;8.85;2.78;;;11.30;70.30;;;;;;4997986;28;20162;-85
2021/05/31 02:42:26;;;;;;;5.28;2.40;;;11.30;70.80;;;;;;4997212;28;20202;-85
2021/05/31 02:44:52;;;;;;;6.90;3.03;;;11.30;71.30;;;;;;4997269;28;20179;-85
2021/05/31 02:47:18;;;;;;;13.70;3.20;;;11.20;70.80;;;;;;4996650;28;20921;-85
2021/05/31 02:49:44;;;;;;;8.90;2.43;;;11.30;71.60;;;;;;4997692;28;20182;-85
2021/05/31 02:52:09;;;;;;;3.90;2.40;;;11.30;70.80;;;;;;4997693;28;20198;-85
2021/05/31 02:54:35;;;;;;;5.83;3.10;;;11.20;71.20;;;;;;4997532;28;20311;-85
2021/05/31 02:57:01;;;;;;;4.80;2.37;;;11.10;71.30;;;;;;4997107;28;20170;-85
2021/05/31 02:59:27;;;;;;;4.30;2.83;;;11.10;71.70;;;;;;4998689;28;20172;-84
2021/05/31 03:01:52;;;;;;;9.47;2.93;;;11.00;72.10;;;;;;4998005;28;20445;-84
2021/05/31 03:04:18;;;;;;;4.10;2.37;;;11.00;72.30;;;;;;4997342;28;20197;-85
2021/05/31 03:06:44;;;;;;;5.03;2.47;;;10.90;72.70;;;;;;4998539;28;20611;-85
2021/05/31 03:09:09;;;;;;;5.03;2.50;;;10.90;72.80;;;;;;4998390;28;20232;-85
2021/05/31 03:11:35;;;;;;;7.63;2.63;;;10.90;73.30;;;;;;4997416;28;20758;-84
2021/05/31 03:14:01;;;;;;;7.13;3.20;;;10.80;73.40;;;;;;4997482;28;20163;-82
2021/05/31 03:16:27;;;;;;;8.63;2.73;;;10.80;73.40;;;;;;5000037;28;20445;-84
2021/05/31 03:18:52;;;;;;;6.83;2.70;;;10.70;73.50;;;;;;4999706;28;20422;-82
2021/05/31 03:21:18;;;;;;;5.97;2.53;;;10.70;74.40;;;;;;4997689;28;20236;-83
2021/05/31 03:23:44;;;;;;;5.03;2.50;;;10.60;74.60;;;;;;4996076;28;20183;-84
2021/05/31 03:26:10;;;;;;;4.83;2.43;;;10.50;75.10;;;;;;4996159;28;20635;-83
2021/05/31 03:28:36;;;;;;;3.50;2.20;;;10.40;75.10;;;;;;4996901;28;20178;-84
2021/05/31 03:31:01;;;;;;;9.07;2.43;;;10.40;75.20;;;;;;5013954;28;20202;-84
2021/05/31 03:33:27;;;;;;;7.10;3.10;;;10.40;75.50;;;;;;4997313;28;20262;-84
2021/05/31 03:35:53;;;;;;;6.77;3.70;;;10.40;75.20;;;;;;4997316;28;20171;-83
2021/05/31 03:38:19;;;;;;;5.30;3.20;;;10.40;75.30;;;;;;4996171;28;20469;-83
2021/05/31 03:40:44;;;;;;;5.93;3.03;;;10.40;75.30;;;;;;4997169;28;20524;-83
2021/05/31 03:43:10;;;;;;;7.30;3.43;;;10.40;75.60;;;;;;4995627;28;20501;-84
2021/05/31 03:45:36;;;;;;;4.70;2.93;;;10.40;75.30;;;;;;4998903;28;20185;-82
2021/05/31 03:48:02;;;;;;;10.63;3.30;;;10.30;75.80;;;;;;4998121;28;20170;-82
2021/05/31 03:50:27;;;;;;;5.10;2.80;;;10.30;76.00;;;;;;4998065;28;20224;-81
2021/05/31 03:52:53;;;;;;;7.47;2.60;;;10.30;76.00;;;;;;4997572;28;20475;-83
2021/05/31 03:55:19;;;;;;;7.30;2.30;;;10.30;76.40;;;;;;4997404;28;20753;-81
2021/05/31 03:57:45;;;;;;;7.60;2.80;;;10.30;76.30;;;;;;4998267;28;20678;-80
2021/05/31 04:00:11;;;;;;;6.53;2.80;;;10.30;76.90;;;;;;4998036;28;20858;-80
2021/05/31 04:02:39;;;;;;;8.20;2.55;;;10.30;77.10;;;;;;4997304;28;20479;-81
2021/05/31 04:05:07;;;;;;;9.35;3.50;;;10.40;76.60;;;;;;4997873;28;20202;-80
2021/05/31 04:13:01;;;;;;;10.48;3.53;;;10.40;77.10;;;;;;5015093;28;20193;-80
2021/05/31 04:15:27;;;;;;;7.50;3.37;;;10.40;78.30;;;;;;4997231;28;20198;-80
2021/05/31 04:17:52;;;;;;;8.70;4.40;;;10.40;78.70;;;;;;4996511;28;20535;-80
2021/05/31 04:20:19;;;;;;;12.60;4.70;;;10.40;77.60;;;;;;4996730;28;20410;-80
2021/05/31 04:22:45;;;;;;;8.25;5.05;;;10.40;77.40;;;;;;4997218;28;20201;-80
2021/05/31 04:25:12;;;;;;;10.85;4.40;;;10.40;77.60;;;;;;4997059;28;20179;-80
2021/05/31 04:27:38;;;;;;;14.30;4.80;;;10.40;77.80;;;;;;4996783;28;20451;-80
2021/05/31 04:30:05;;;;;;;9.70;4.70;;;10.50;77.10;;;;;;4996892;28;20192;-81
2021/05/31 04:32:31;;;;;;;16.80;4.32;;;10.60;76.70;;;;;;4996597;28;20465;-80
2021/05/31 04:34:57;;;;;;;9.95;4.07;;;10.60;76.70;;;;;;4996425;28;20166;-80
2021/05/31 04:37:25;;;;;;;12.05;4.85;;;10.60;76.40;;;;;;4996556;28;20182;-82
2021/05/31 04:39:51;;;;;;;17.73;5.30;;;10.70;76.70;;;;;;4996473;28;20675;-81
2021/05/31 04:42:17;;;;;;;19.00;5.13;;;10.70;76.60;;;;;;4996184;28;20195;-80
2021/05/31 04:44:43;;;;;;;10.53;4.80;;;10.80;75.80;;;;;;4995942;28;20190;-81
2021/05/31 04:47:08;;;;;;;9.17;4.40;;;10.80;75.50;;;;;;4996199;28;20236;-81
2021/05/31 04:49:34;;;;;;;9.63;4.93;;;10.90;75.80;;;;;;5013720;28;20175;-81
2021/05/31 04:52:01;;;;;;;11.02;5.07;;;11.00;74.80;;;;;;4996653;28;20290;-81
2021/05/31 04:54:26;;;;;;;7.03;3.67;;;11.00;74.80;;;;;;4996665;28;20183;-81
2021/05/31 04:56:53;;;;;;;11.00;3.93;;;11.10;74.50;;;;;;4996758;28;20177;-81
2021/05/31 04:59:18;;;;;;;12.68;4.80;;;11.20;74.40;;;;;;4996932;28;20420;-81
2021/05/31 05:01:44;;;;;;;11.33;5.40;;;11.30;74.20;;;;;;4996724;28;20258;-81
2021/05/31 05:04:10;;;;;;;13.43;6.00;;;11.40;73.80;;;;;;4996131;28;20413;-81
2021/05/31 05:06:36;;;;;;;16.07;7.93;;;11.40;73.50;;;;;;4996193;28;20171;-81
2021/05/31 05:09:02;;;;;;;20.80;7.20;;;11.50;73.10;;;;;;4995723;28;20261;-81
2021/05/31 05:11:28;;;;;;;30.52;9.30;;;11.70;72.70;;;;;;4995590;28;20928;-81
2021/05/31 05:13:54;;;;;;;25.60;8.40;;;11.70;72.70;;;;;;4995903;28;20171;-81
2021/05/31 05:16:20;;;;;;;27.43;7.80;;;11.80;72.80;;;;;;4996053;28;20414;-81
2021/05/31 05:18:48;;;;;;;15.68;5.28;;;11.90;73.10;;;;;;4995956;28;20265;-81
2021/05/31 05:21:18;;;;;;;18.70;5.82;;;12.00;72.40;;;;;;4995711;28;20198;-81
2021/05/31 05:23:46;;;;;;;18.52;6.55;;;12.00;71.60;;;;;;4996654;28;20252;-81
2021/05/31 05:26:12;;;;;;;13.63;6.20;;;12.00;72.10;;;;;;4995779;28;20224;-81
2021/05/31 05:28:39;;;;;;;22.70;6.82;;;12.10;72.60;;;;;;4996399;28;20591;-81
2021/05/31 05:31:09;;;;;;;19.15;7.15;;;12.10;72.30;;;;;;4998874;28;20678;-81
2021/05/31 05:33:36;;;;;;;34.17;7.60;;;12.20;72.30;;;;;;5000263;28;20171;-81
2021/05/31 05:36:48;;;;;;;19.30;6.55;;;12.30;72.40;;;;;;5000358;28;20634;-81
2021/05/31 05:42:05;;;;;;;16.85;7.93;;;12.60;70.20;;;;;;5020562;28;20610;-81
2021/05/31 05:49:41;;;;;;;12.23;5.20;;;12.80;68.40;;;;;;5019774;28;20159;-80
2021/05/31 05:52:08;;;;;;;17.05;5.25;;;12.90;68.40;;;;;;4999361;28;20206;-80
2021/05/31 05:54:34;;;;;;;13.85;6.00;;;13.00;68.40;;;;;;5001626;28;20185;-81
2021/05/31 05:57:00;;;;;;;38.03;7.00;;;13.10;68.70;;;;;;5000598;28;20166;-81
2021/05/31 05:59:26;;;;;;;14.23;6.87;;;13.20;67.60;;;;;;5000604;28;20499;-80
2021/05/31 06:01:51;;;;;;;10.50;4.87;;;13.40;67.00;;;;;;5000942;28;20281;-81
2021/05/31 06:04:18;;;;;;;10.30;5.83;;;13.50;65.10;;;;;;4999874;28;20433;-81
2021/05/31 06:06:45;;;;;;;13.63;5.07;;;13.60;65.10;;;;;;5000769;28;20421;-81
2021/05/31 06:09:18;;;;;;;9.63;4.45;;;13.70;64.50;;;;;;5000867;28;20186;-80
2021/05/31 06:11:44;;;;;;;14.00;4.93;;;13.80;63.90;;;;;;4998828;28;20213;-81
2021/05/31 06:14:10;;;;;;;12.95;4.80;;;14.00;63.50;;;;;;4997725;28;20193;-82
2021/05/31 06:16:37;;;;;;;11.63;4.45;;;14.10;62.60;;;;;;5000012;28;20167;-81
2021/05/31 06:19:03;;;;;;;14.05;4.88;;;14.30;62.40;;;;;;5001259;28;20543;-82
2021/05/31 06:21:30;;;;;;;15.80;5.45;;;14.50;62.80;;;;;;4999955;28;20221;-82
2021/05/31 06:23:56;;;;;;;11.32;5.38;;;14.60;62.40;;;;;;4999771;28;20178;-82
2021/05/31 06:26:22;;;;;;;14.55;6.22;;;14.70;62.00;;;;;;5000290;28;20174;-82
2021/05/31 06:28:48;;;;;;;17.10;4.65;;;14.70;61.40;;;;;;5000582;28;20229;-82
2021/05/31 06:31:14;;;;;;;9.47;5.77;;;14.90;61.40;;;;;;4999718;28;20198;-82
2021/05/31 06:33:40;;;;;;;8.85;4.18;;;15.00;61.70;;;;;;5000202;28;20409;-82
2021/05/31 06:36:09;;;;;;;10.90;4.50;;;15.20;60.50;;;;;;4999759;28;20175;-82
2021/05/31 06:38:35;;;;;;;16.90;6.20;;;15.30;59.70;;;;;;5000341;28;20414;-82
2021/05/31 06:41:03;;;;;;;10.50;4.25;;;15.50;59.20;;;;;;4998973;28;20190;-81
2021/05/31 06:43:30;;;;;;;8.38;3.97;;;15.60;59.30;;;;;;5000033;28;20175;-81
2021/05/31 06:45:58;;;;;;;9.15;4.13;;;15.70;59.10;;;;;;5000376;28;20196;-82
2021/05/31 06:48:24;;;;;;;9.07;3.90;;;15.90;59.10;;;;;;5000103;28;20179;-81
2021/05/31 06:50:50;;;;;;;7.65;3.58;;;16.00;57.90;;;;;;5000349;28;20190;-81
2021/05/31 06:53:17;;;;;;;6.63;3.47;;;16.20;57.40;;;;;;5000017;28;20175;-81
2021/05/31 06:55:43;;;;;;;13.95;5.75;;;16.30;57.20;;;;;;4998773;28;20772;-81
2021/05/31 06:58:09;;;;;;;8.15;3.92;;;16.40;57.60;;;;;;4999355;28;20177;-81
2021/05/31 07:00:35;;;;;;;7.13;3.30;;;16.60;56.40;;;;;;4999344;28;20175;-81
2021/05/31 07:03:01;;;;;;;4.77;3.37;;;16.80;55.70;;;;;;4999301;28;20420;-81
2021/05/31 07:05:27;;;;;;;7.13;3.33;;;16.90;55.70;;;;;;4999078;28;20175;-81
2021/05/31 07:07:53;;;;;;;4.15;2.60;;;17.10;55.10;;;;;;5000215;28;20474;-81
2021/05/31 07:10:24;;;;;;;5.53;2.83;;;17.30;53.90;;;;;;4996456;28;20175;-82
2021/05/31 07:12:49;;;;;;;5.35;3.17;;;17.40;52.90;;;;;;4999020;28;20209;-82
2021/05/31 07:15:18;;;;;;;4.60;2.60;;;17.60;52.60;;;;;;4998232;28;20681;-81
2021/05/31 07:17:44;;;;;;;4.03;2.22;;;17.70;48.70;;;;;;4998582;28;20520;-81
2021/05/31 07:20:12;;;;;;;4.53;2.50;;;17.80;49.20;;;;;;4997852;28;20263;-81
2021/05/31 07:22:39;;;;;;;4.50;2.38;;;18.00;48.80;;;;;;4998043;28;20235;-81
2021/05/31 07:25:07;;;;;;;3.17;2.25;;;18.00;49.10;;;;;;4999825;28;20638;-81
2021/05/31 07:27:33;;;;;;;3.72;2.70;;;18.20;48.20;;;;;;4998607;28;20719;-82
2021/05/31 07:29:59;;;;;;;4.70;3.03;;;18.40;47.90;;;;;;5000742;28;20207;-81
2021/05/31 07:32:25;;;;;;;4.88;2.83;;;18.50;48.10;;;;;;4998578;28;20453;-82
2021/05/31 07:34:50;;;;;;;6.27;2.20;;;18.50;47.50;;;;;;5002169;28;20174;-83
2021/05/31 07:37:17;;;;;;;4.33;2.40;;;18.70;45.60;;;;;;5002316;28;20957;-83
2021/05/31 07:39:43;;;;;;;3.33;1.95;;;18.80;44.40;;;;;;5000618;28;20175;-82
2021/05/31 07:42:09;;;;;;;5.32;2.50;;;18.90;43.90;;;;;;4999202;28;20201;-82
2021/05/31 07:44:35;;;;;;;8.23;2.97;;;19.00;44.80;;;;;;5018179;28;20254;-82
2021/05/31 07:47:02;;;;;;;5.00;2.90;;;19.10;43.30;;;;;;5000093;28;20456;-81
2021/05/31 07:49:28;;;;;;;12.20;2.53;;;19.10;42.90;;;;;;4998248;28;20422;-81
2021/05/31 07:51:55;;;;;;;5.70;2.67;;;19.30;43.30;;;;;;4996746;28;20209;-81
2021/05/31 07:54:23;;;;;;;10.63;1.90;;;19.40;42.70;;;;;;4998160;28;20175;-82
2021/05/31 07:56:49;;;;;;;9.35;3.50;;;19.50;43.50;;;;;;4998345;28;20178;-83
2021/05/31 07:59:15;;;;;;;5.85;2.60;;;19.50;43.20;;;;;;4998861;28;20178;-82
2021/05/31 08:01:41;;;;;;;9.10;2.80;;;19.50;44.50;;;;;;4998378;28;20203;-82
2021/05/31 08:04:07;;;;;;;3.80;2.85;;;19.70;42.60;;;;;;4998222;28;20413;-83
2021/05/31 08:06:37;;;;;;;6.53;2.30;;;19.80;40.70;;;;;;4998959;28;20209;-83
2021/05/31 08:09:05;;;;;;;4.05;2.40;;;19.90;39.40;;;;;;4999506;28;20175;-83
2021/05/31 08:11:31;;;;;;;5.32;2.40;;;19.90;40.20;;;;;;5005224;28;20198;-86
2021/05/31 08:13:57;;;;;;;7.55;2.10;;;20.00;40.70;;;;;;5006755;28;20171;-84
2021/05/31 08:16:23;;;;;;;12.30;3.10;;;20.10;40.30;;;;;;5006410;28;20179;-84
2021/05/31 08:18:49;;;;;;;9.10;2.70;;;20.20;41.00;;;;;;5007163;28;20179;-84
2021/05/31 08:21:15;;;;;;;3.53;2.37;;;20.20;41.40;;;;;;5007505;28;20229;-84
2021/05/31 08:23:41;;;;;;;4.93;2.60;;;20.30;40.20;;;;;;5007016;28;20410;-84
2021/05/31 08:26:07;;;;;;;16.80;2.37;;;20.40;40.50;;;;;;5007202;28;20177;-86
2021/05/31 08:28:33;;;;;;;3.10;2.07;;;20.60;39.40;;;;;;5008202;28;20929;-85
2021/05/31 08:31:00;;;;;;;3.17;1.77;;;20.80;40.80;;;;;;5010940;28;20449;-84
2021/05/31 08:33:26;;;;;;;4.40;2.17;;;20.80;38.90;;;;;;5008318;28;20167;-84
2021/05/31 08:35:52;;;;;;;4.25;2.13;;;20.80;39.30;;;;;;5007434;28;20167;-84
2021/05/31 08:38:19;;;;;;;2.80;2.20;;;20.70;38.90;;;;;;5007482;28;20593;-85
2021/05/31 08:40:45;;;;;;;3.08;2.10;;;20.50;38.10;;;;;;5005610;28;20429;-88
2021/05/31 08:43:11;;;;;;;5.43;2.72;;;20.50;39.10;;;;;;5004795;28;20170;-84
2021/05/31 08:45:37;;;;;;;4.70;2.47;;;20.60;39.50;;;;;;5005705;28;20200;-84
2021/05/31 08:48:06;;;;;;;3.92;2.42;;;20.70;39.80;;;;;;5008070;28;20425;-84
2021/05/31 08:50:33;;;;;;;4.40;2.50;;;20.70;39.50;;;;;;5003658;28;20170;-84
2021/05/31 08:53:00;;;;;;;2.67;1.90;;;20.70;39.30;;;;;;5006783;28;20206;-84
2021/05/31 08:55:28;;;;;;;3.08;2.17;;;20.70;39.50;;;;;;5005732;28;20197;-84
2021/05/31 08:57:55;;;;;;;7.18;2.10;;;20.60;39.70;;;;;;5005790;28;20174;-84
2021/05/31 09:00:24;;;;;;;4.75;2.28;;;20.60;40.60;;;;;;5006774;28;20171;-85
2021/05/31 09:02:51;;;;;;;4.00;2.30;;;20.80;39.10;;;;;;5004978;28;20193;-85
2021/05/31 09:05:38;;;;;;;3.65;2.60;;;20.90;39.40;;;;;;5005457;28;20177;-85
2021/05/31 09:08:08;;;;;;;2.50;2.17;;;21.00;39.30;;;;;;5004340;28;20185;-84
2021/05/31 09:10:36;;;;;;;4.93;2.53;;;21.00;38.20;;;;;;5006118;28;20179;-84
2021/05/31 09:15:30;;;;;;;3.17;2.03;;;20.90;38.10;;;;;;5098304;28;20188;-82
2021/05/31 09:17:56;;;;;;;8.45;2.60;;;21.10;38.20;;;;;;5081569;28;20662;-81
2021/05/31 09:20:24;;;;;;;5.07;2.60;;;21.10;38.20;;;;;;5081778;28;20164;-81
2021/05/31 09:22:53;;;;;;;4.78;2.60;;;21.30;38.00;;;;;;5062077;28;20438;-81
2021/05/31 09:25:34;;;;;;;6.78;2.40;;;21.40;38.00;;;;;;5061888;28;20230;-81
2021/05/31 09:28:04;;;;;;;7.32;2.55;;;21.50;38.90;;;;;;5062266;28;20628;-82
2021/05/31 09:30:36;;;;;;;6.00;2.63;;;21.80;38.60;;;;;;5062796;28;20790;-81
2021/05/31 09:33:03;;;;;;;10.43;3.20;;;21.90;38.10;;;;;;5062531;28;20231;-81
2021/05/31 09:35:29;;;;;;;4.70;2.60;;;22.10;38.80;;;;;;5061680;28;20172;-81
2021/05/31 09:38:00;;;;;;;4.70;2.40;;;22.40;38.00;;;;;;5060495;28;20176;-82
2021/05/31 09:40:26;;;;;;;3.88;2.78;;;22.60;36.70;;;;;;5061266;28;20164;-81
2021/05/31 09:42:58;;;;;;;6.15;2.30;;;22.70;36.00;;;;;;5061720;28;20173;-80
2021/05/31 09:45:25;;;;;;;6.28;3.20;;;22.80;35.30;;;;;;5060139;28;20644;-81
2021/05/31 09:47:51;;;;;;;2.95;2.10;;;22.70;35.30;;;;;;5061388;28;20179;-81
2021/05/31 09:50:25;;;;;;;5.17;2.67;;;22.70;36.50;;;;;;5061540;28;20244;-81
2021/05/31 09:53:12;;;;;;;4.40;2.50;;;22.70;36.30;;;;;;5061320;28;20445;-81
2021/05/31 09:55:47;;;;;;;7.20;2.97;;;22.80;35.60;;;;;;5060770;28;20185;-81
2021/05/31 09:58:17;;;;;;;6.75;2.42;;;22.90;36.30;;;;;;5061623;28;20160;-81
2021/05/31 10:00:51;;;;;;;4.88;2.42;;;23.10;37.00;;;;;;5061468;28;20283;-81
2021/05/31 10:08:47;;;;;;;8.23;2.97;;;23.60;35.30;;;;;;5007991;28;20593;-81
2021/05/31 10:11:14;;;;;;;3.65;2.80;;;23.70;35.70;;;;;;5061029;28;20200;-81
2021/05/31 10:13:41;;;;;;;2.85;2.40;;;23.80;35.60;;;;;;5060226;28;20184;-82
2021/05/31 10:16:09;;;;;;;4.00;2.90;;;23.60;33.40;;;;;;5062437;28;20168;-81
2021/05/31 10:18:40;;;;;;;5.88;2.30;;;23.40;35.60;;;;;;5064925;28;20168;-79
2021/05/31 10:21:07;;;;;;;2.10;2.00;;;23.40;35.90;;;;;;5065252;28;20268;-81
2021/05/31 10:23:33;;;;;;;5.95;2.63;;;23.40;35.60;;;;;;5064384;28;20226;-80
2021/05/31 10:26:03;;;;;;;4.40;2.57;;;23.50;34.00;;;;;;5064228;28;20215;-80
2021/05/31 10:28:36;;;;;;;4.40;2.80;;;23.40;36.40;;;;;;5065855;28;20184;-81
2021/05/31 10:31:05;;;;;;;3.90;2.45;;;23.60;36.50;;;;;;5065321;28;20235;-81
2021/05/31 10:33:37;;;;;;;6.05;2.40;;;23.90;34.80;;;;;;5065587;28;20171;-81
2021/05/31 10:36:18;;;;;;;5.25;2.75;;;24.00;34.80;;;;;;5065036;28;20160;-80
2021/05/31 10:38:47;;;;;;;7.80;3.00;;;24.20;35.30;;;;;;5064757;28;20191;-81
2021/05/31 10:41:15;;;;;;;7.70;4.00;;;24.40;33.80;;;;;;5064283;28;20188;-81
2021/05/31 10:43:50;;;;;;;4.63;2.30;;;24.70;35.30;;;;;;5063729;28;20207;-81
2021/05/31 10:46:26;;;;;;;4.93;2.40;;;24.80;32.60;;;;;;5063973;28;20179;-81
2021/05/31 10:48:52;;;;;;;3.72;2.60;;;24.20;32.30;;;;;;5063036;28;20167;-80
2021/05/31 10:51:31;;;;;;;9.48;2.80;;;23.80;34.30;;;;;;5064304;28;20668;-80
2021/05/31 10:54:07;;;;;;;5.40;2.45;;;23.90;34.40;;;;;;5064368;28;20176;-81
2021/05/31 10:56:33;;;;;;;3.35;2.55;;;24.10;38.60;;;;;;5064057;28;20217;-80
2021/05/31 10:58:59;;;;;;;4.50;2.93;;;24.30;36.80;;;;;;5063768;28;20178;-81
2021/05/31 11:01:28;;;;;;;7.43;2.97;;;24.50;37.30;;;;;;5064806;28;20222;-81
2021/05/31 11:04:02;;;;;;;4.15;2.10;;;24.90;34.20;;;;;;5063603;28;20411;-81
2021/05/31 11:06:30;;;;;;;2.35;2.15;;;25.20;32.70;;;;;;5065175;28;20179;-81
2021/05/31 11:09:32;;;;;;;3.13;2.40;;;25.20;32.50;;;;;;5063386;28;20793;-82
2021/05/31 11:12:07;;;;;;;3.90;2.15;;;25.20;32.30;;;;;;5063291;28;20770;-81
2021/05/31 11:14:37;;;;;;;3.38;2.40;;;25.30;32.10;;;;;;5063466;28;20186;-82
2021/05/31 11:17:17;;;;;;;3.50;2.33;;;25.60;34.00;;;;;;5063969;28;20168;-82
2021/05/31 11:19:51;;;;;;;4.93;2.42;;;25.80;33.40;;;;;;5063925;28;20174;-81
2021/05/31 11:22:23;;;;;;;6.18;2.78;;;25.70;33.60;;;;;;5063250;28;20199;-82
2021/05/31 11:25:00;;;;;;;6.22;2.50;;;25.80;33.40;;;;;;5063266;28;20169;-81
2021/05/31 11:27:44;;;;;;;3.60;2.22;;;26.00;31.70;;;;;;5062252;28;20164;-82
2021/05/31 11:30:22;;;;;;;5.95;2.08;;;26.00;31.00;;;;;;5063534;28;20165;-82
2021/05/31 11:32:47;;;;;;;3.42;2.05;;;26.10;31.50;;;;;;5063133;28;20212;-82
2021/05/31 11:35:15;;;;;;;3.23;2.30;;;26.00;32.20;;;;;;5063177;28;20527;-81
2021/05/31 11:37:42;;;;;;;5.93;2.50;;;26.00;30.10;;;;;;5062987;28;20173;-81
2021/05/31 11:40:41;;;;;;;2.85;2.15;;;26.00;30.40;;;;;;5062916;28;20550;-80
2021/05/31 11:43:11;;;;;;;2.50;1.90;;;26.20;29.20;;;;;;5020211;28;20272;-81
2021/05/31 11:45:38;;;;;;;5.10;2.90;;;26.20;27.50;;;;;;5063882;28;20161;-81
2021/05/31 11:48:15;;;;;;;5.75;1.95;;;26.00;29.80;;;;;;5063957;28;20201;-82
2021/05/31 11:50:42;;;;;;;2.80;2.30;;;26.20;31.40;;;;;;5064923;28;20195;-82
2021/05/31 11:53:10;;;;;;;5.30;1.70;;;26.20;29.30;;;;;;5063672;28;20200;-82
2021/05/31 11:55:37;;;;;;;3.90;2.58;;;26.30;30.10;;;;;;5064667;28;20307;-81
2021/05/31 11:58:03;;;;;;;5.07;2.25;;;26.40;31.40;;;;;;5064095;28;20310;-81
2021/05/31 12:00:37;;;;;;;4.40;2.47;;;26.50;29.90;;;;;;5063105;28;20169;-82
2021/05/31 12:03:03;;;;;;;2.50;1.80;;;26.60;30.20;;;;;;5062623;28;20164;-82
2021/05/31 12:05:37;;;;;;;6.85;2.72;;;26.50;29.20;;;;;;5062920;28;20196;-82
2021/05/31 12:08:11;;;;;;;4.00;2.95;;;26.40;30.50;;;;;;5063738;28;20172;-81
2021/05/31 12:10:39;;;;;;;4.13;2.35;;;26.50;29.20;;;;;;5063462;28;20160;-81
2021/05/31 12:13:05;;;;;;;3.15;2.30;;;26.60;27.80;;;;;;5063250;28;20215;-81
2021/05/31 12:15:31;;;;;;;3.70;2.50;;;26.80;30.40;;;;;;5062979;28;20230;-81
2021/05/31 12:18:10;;;;;;;5.57;2.58;;;26.80;28.60;;;;;;5062226;28;20172;-84
2021/05/31 12:20:36;;;;;;;3.30;2.20;;;26.80;28.00;;;;;;5063348;28;20638;-81
2021/05/31 12:23:02;;;;;;;1.93;1.83;;;26.90;28.70;;;;;;5062126;28;20172;-81
2021/05/31 12:25:32;;;;;;;3.80;2.50;;;26.70;27.50;;;;;;5063126;28;20543;-80
2021/05/31 12:28:04;;;;;;;3.58;2.08;;;26.20;28.00;;;;;;5063203;28;20652;-81
2021/05/31 12:30:30;;;;;;;3.45;1.98;;;26.20;28.90;;;;;;5063783;28;20184;-81
2021/05/31 12:32:56;;;;;;;3.80;2.20;;;26.30;28.70;;;;;;5064057;28;20570;-81
2021/05/31 12:35:22;;;;;;;3.60;2.10;;;26.50;29.30;;;;;;5064157;28;20775;-80
2021/05/31 12:37:52;;;;;;;6.07;2.70;;;26.70;27.80;;;;;;5062443;28;20636;-81
2021/05/31 12:40:19;;;;;;;3.63;2.10;;;26.70;27.10;;;;;;5061686;28;20635;-80
2021/05/31 12:42:48;;;;;;;4.40;2.97;;;26.70;27.70;;;;;;5062463;28;20202;-81
2021/05/31 12:45:19;;;;;;;3.10;2.28;;;26.80;29.40;;;;;;5062792;28;20168;-82
2021/05/31 12:47:49;;;;;;;3.15;2.00;;;27.00;27.80;;;;;;5062828;28;20200;-81
2021/05/31 12:50:33;;;;;;;2.83;2.17;;;27.10;26.50;;;;;;5063388;28;20557;-83
2021/05/31 12:53:07;;;;;;;3.17;2.08;;;27.10;28.70;;;;;;5062477;28;20264;-83
2021/05/31 12:55:34;;;;;;;4.53;2.40;;;27.30;28.80;;;;;;5062239;28;20172;-83
2021/05/31 12:58:10;;;;;;;4.72;2.30;;;27.40;27.60;;;;;;5062879;28;20194;-83
2021/05/31 13:00:36;;;;;;;2.88;2.10;;;27.30;27.10;;;;;;5063603;28;20168;-83
2021/05/31 13:03:02;;;;;;;2.63;2.28;;;27.30;27.50;;;;;;5062693;28;20173;-83
2021/05/31 13:05:31;;;;;;;3.50;1.80;;;27.20;27.00;;;;;;5062954;28;20173;-83
2021/05/31 13:08:00;;;;;;;4.55;2.15;;;27.30;28.10;;;;;;5062497;28;20445;-83
2021/05/31 13:10:37;;;;;;;2.85;2.20;;;27.60;28.20;;;;;;5063005;28;20180;-83
2021/05/31 13:13:07;;;;;;;7.45;2.20;;;27.60;27.40;;;;;;5062534;28;20206;-84